Terminal Aerodrome Forecast
Issued by NWS Milwaukee/Sullivan, WI

Home | Current Version | Previous Version | Text Only | Print | Product List | Glossary On
Versions: 1 2 3 4 5 6 7 8 9 10 11 12 13 14 15 16 17 18 19 20 21 22 23 24 25 26 27 28 29 30 31 32 33 34 35 36 37 38 39 40 41 42 43 44 45 46 47 48 49 50
000
FTUS43 KMKX 070645 AAA
TAFMKE
TAF AMD
KMKE 070645Z 0707/0812 VRB03KT 6SM BR SCT001 BKN100
      TEMPO 0707/0710 3SM BR BKN003
     FM071300 18006KT 3SM BR SCT050
     FM071500 18009KT 6SM BR SCT200
     FM071800 18015G23KT P6SM SCT110
     FM080100 18009KT P6SM SCT120
     FM080600 20011KT P6SM BKN035=

USA.gov is the U.S. government's official web portal to all federal, state and local government web resources and services.